createdAt,value
2018-07-03T00:56:24.655Z,3.40
2018-07-03T00:58:52.797Z,3.60
2018-07-03T01:01:20.872Z,3.70
2018-07-03T01:03:48.896Z,3.40
2018-07-03T01:06:16.960Z,4.10
2018-07-03T01:08:45.055Z,3.57
2018-07-03T01:11:13.082Z,3.70
2018-07-03T01:13:41.220Z,3.70
2018-07-03T01:16:09.295Z,3.70
2018-07-03T01:18:37.556Z,3.30
2018-07-03T01:21:05.585Z,3.13
2018-07-03T01:23:33.636Z,3.93
2018-07-03T01:26:02.044Z,3.90
2018-07-03T01:28:30.119Z,2.90
2018-07-03T01:30:58.143Z,3.87
2018-07-03T01:33:26.146Z,3.77
2018-07-03T01:35:54.143Z,3.67
2018-07-03T01:38:22.126Z,3.63
2018-07-03T01:40:50.219Z,3.97
2018-07-03T01:43:18.294Z,3.60
2018-07-03T01:45:46.307Z,3.30
2018-07-03T01:48:14.309Z,3.30
2018-07-03T01:50:42.332Z,3.60
2018-07-03T01:53:10.542Z,3.30
2018-07-03T01:55:38.540Z,3.50
2018-07-03T01:58:06.801Z,3.20
2018-07-03T02:00:34.860Z,3.10
2018-07-03T02:03:02.908Z,3.10
2018-07-03T02:05:31.039Z,3.17
2018-07-03T02:07:59.130Z,3.30
2018-07-03T02:10:27.229Z,3.10
2018-07-03T02:12:55.238Z,4.17
2018-07-03T02:15:23.834Z,3.80
2018-07-03T02:17:51.870Z,3.23
2018-07-03T02:20:19.939Z,3.67
2018-07-03T02:22:47.958Z,3.50
2018-07-03T02:25:16.088Z,3.30
2018-07-03T02:27:44.145Z,3.33
2018-07-03T02:30:12.180Z,3.40
2018-07-03T02:32:40.259Z,3.33
2018-07-03T02:35:08.294Z,3.80
2018-07-03T02:37:36.308Z,3.50
2018-07-03T02:40:04.538Z,3.67
2018-07-03T02:42:32.626Z,3.37
2018-07-03T02:45:01.710Z,3.30
2018-07-03T02:47:29.747Z,3.50
2018-07-03T02:49:57.766Z,3.40
2018-07-03T02:52:25.752Z,3.33
2018-07-03T02:54:53.829Z,3.50
2018-07-03T02:57:21.856Z,3.90
2018-07-03T02:59:49.911Z,3.53
2018-07-03T03:02:18.013Z,3.73
2018-07-03T03:04:46.104Z,4.10
2018-07-03T03:07:14.106Z,3.67
2018-07-03T03:09:42.125Z,3.70
2018-07-03T03:12:10.212Z,3.67
2018-07-03T03:14:38.338Z,3.70
2018-07-03T03:17:06.436Z,3.90
2018-07-03T03:19:34.475Z,3.50
2018-07-03T03:22:02.519Z,3.43
2018-07-03T03:24:30.552Z,3.60
2018-07-03T03:26:58.563Z,3.70
2018-07-03T03:29:27.182Z,4.00
2018-07-03T03:31:55.258Z,3.80
2018-07-03T03:34:23.420Z,3.80
2018-07-03T03:36:51.546Z,3.57
2018-07-03T03:39:19.644Z,3.90
2018-07-03T03:41:47.689Z,3.30
2018-07-03T03:44:15.731Z,3.20
2018-07-03T03:46:43.756Z,3.20
2018-07-03T03:49:11.829Z,3.67
2018-07-03T03:51:39.881Z,3.00
2018-07-03T03:54:07.936Z,3.37
2018-07-03T03:56:35.988Z,3.87
2018-07-03T03:59:04.136Z,3.50
2018-07-03T04:01:32.106Z,3.60
2018-07-03T04:04:00.216Z,3.10
2018-07-03T04:06:28.257Z,3.63
2018-07-03T04:08:56.319Z,3.40
2018-07-03T04:11:24.321Z,3.00
2018-07-03T04:13:52.352Z,3.37
2018-07-03T04:16:20.386Z,3.37
2018-07-03T04:18:48.512Z,3.40
2018-07-03T04:21:16.530Z,3.47
2018-07-03T04:23:44.588Z,3.00
2018-07-03T04:26:12.655Z,3.03
2018-07-03T04:28:40.776Z,3.20
2018-07-03T04:31:09.740Z,3.10
2018-07-03T04:33:37.725Z,3.17
2018-07-03T04:36:05.852Z,3.00
2018-07-03T04:38:33.823Z,3.00
2018-07-03T04:41:01.918Z,2.97
2018-07-03T04:43:29.924Z,3.40
2018-07-03T04:45:57.953Z,3.10
2018-07-03T04:48:26.127Z,3.43
2018-07-03T04:50:54.180Z,3.50
2018-07-03T04:53:22.385Z,2.53
2018-07-03T04:55:50.421Z,3.33
2018-07-03T04:58:18.449Z,2.60
2018-07-03T05:00:46.477Z,2.77
2018-07-03T05:03:14.457Z,2.90
2018-07-03T05:05:42.575Z,2.83
2018-07-03T05:08:10.531Z,2.80
2018-07-03T05:10:38.518Z,2.80
2018-07-03T05:13:06.594Z,2.60
2018-07-03T05:15:34.669Z,2.67
2018-07-03T05:18:02.772Z,2.77
2018-07-03T05:20:30.826Z,2.50
2018-07-03T05:22:58.876Z,2.77
2018-07-03T05:25:27.073Z,2.83
2018-07-03T05:27:55.121Z,2.50
2018-07-03T05:30:23.067Z,2.60
2018-07-03T05:32:51.164Z,2.43
2018-07-03T05:35:19.244Z,2.40
2018-07-03T05:37:47.312Z,2.70
2018-07-03T05:40:15.331Z,2.73
2018-07-03T05:42:43.370Z,2.60
2018-07-03T05:45:11.464Z,2.50
2018-07-03T05:47:39.535Z,2.53
2018-07-03T05:50:07.676Z,2.30
2018-07-03T05:52:35.667Z,2.33
2018-07-03T05:55:03.837Z,2.40
2018-07-03T05:57:31.899Z,2.50
2018-07-03T05:59:59.882Z,2.50
2018-07-03T06:02:27.925Z,2.30
2018-07-03T06:04:55.944Z,3.07
2018-07-03T06:07:24.076Z,2.50
2018-07-03T06:09:52.123Z,2.50
2018-07-03T06:12:20.155Z,2.00
2018-07-03T06:14:48.253Z,2.60
2018-07-03T06:17:16.268Z,2.50
2018-07-03T06:19:44.344Z,2.50
2018-07-03T06:22:12.559Z,2.40
2018-07-03T06:24:40.400Z,2.43
2018-07-03T06:27:08.500Z,2.30
2018-07-03T06:29:36.636Z,2.00
2018-07-03T06:32:04.695Z,2.20
2018-07-03T06:34:33.787Z,2.13
2018-07-03T06:37:01.892Z,2.10
2018-07-03T06:39:29.909Z,2.47
2018-07-03T06:41:57.897Z,2.90
2018-07-03T06:44:25.899Z,2.60
2018-07-03T06:46:54.152Z,2.00
2018-07-03T06:49:22.196Z,2.00
2018-07-03T06:51:50.293Z,1.83
2018-07-03T06:54:18.396Z,2.20
2018-07-03T06:56:46.447Z,2.23
2018-07-03T06:59:15.131Z,2.13
2018-07-03T07:01:43.163Z,2.13
2018-07-03T07:04:11.209Z,1.90
2018-07-03T07:06:39.373Z,2.07
2018-07-03T07:09:08.367Z,2.10
2018-07-03T07:11:36.446Z,2.20
2018-07-03T07:14:04.752Z,2.20
2018-07-03T07:16:32.883Z,2.23
2018-07-03T07:19:00.884Z,2.17
2018-07-03T07:21:28.975Z,1.87
2018-07-03T07:23:56.964Z,2.50
2018-07-03T07:26:25.311Z,1.90
2018-07-03T07:28:53.647Z,2.00
2018-07-03T07:31:21.635Z,1.93
2018-07-03T07:33:49.665Z,1.73
2018-07-03T07:36:17.746Z,1.73
2018-07-03T07:38:45.878Z,1.87
2018-07-03T07:41:13.923Z,2.10
2018-07-03T07:43:41.889Z,1.90
2018-07-03T07:46:09.988Z,1.80
2018-07-03T07:48:38.008Z,1.80
2018-07-03T07:51:06.141Z,2.00
2018-07-03T07:53:34.201Z,1.60
2018-07-03T07:56:02.251Z,2.10
2018-07-03T07:58:30.270Z,1.90
2018-07-03T08:00:58.287Z,1.87
2018-07-03T08:03:26.332Z,2.00
2018-07-03T08:05:54.357Z,2.20
2018-07-03T08:08:22.335Z,1.90
2018-07-03T08:10:50.399Z,1.90
2018-07-03T08:13:18.548Z,1.90
2018-07-03T08:15:46.522Z,1.70
2018-07-03T08:18:14.635Z,1.60
2018-07-03T08:20:42.800Z,1.70
2018-07-03T08:23:10.862Z,1.70
2018-07-03T08:25:38.886Z,1.83
2018-07-03T08:28:06.922Z,1.57
2018-07-03T08:30:35.013Z,1.30
2018-07-03T08:33:03.003Z,1.80
2018-07-03T08:35:31.004Z,2.00
2018-07-03T08:37:59.048Z,1.90
2018-07-03T08:40:27.115Z,1.70
2018-07-03T08:42:55.145Z,2.50
2018-07-03T08:45:23.157Z,3.80
2018-07-03T08:47:51.173Z,3.30
2018-07-03T08:50:19.203Z,3.10
2018-07-03T08:52:47.207Z,4.00
2018-07-03T08:55:15.185Z,3.90
2018-07-03T08:57:43.353Z,3.53
2018-07-03T09:00:11.455Z,2.70
2018-07-03T09:02:39.704Z,2.30
2018-07-03T09:05:07.846Z,2.20
2018-07-03T09:07:35.972Z,2.00
2018-07-03T09:10:04.023Z,1.93
2018-07-03T09:12:32.036Z,2.03
2018-07-03T09:15:00.049Z,2.17
2018-07-03T09:17:28.947Z,2.07
2018-07-03T09:19:57.302Z,2.13
2018-07-03T09:22:25.432Z,2.00
2018-07-03T09:24:53.460Z,2.20
2018-07-03T09:27:21.566Z,2.10
2018-07-03T09:29:49.704Z,1.97
2018-07-03T09:32:17.786Z,2.17
2018-07-03T09:34:46.104Z,1.83
2018-07-03T09:37:14.264Z,1.70
2018-07-03T09:39:42.331Z,1.80
2018-07-03T09:42:10.596Z,2.20
2018-07-03T09:44:38.782Z,2.00
2018-07-03T09:47:07.112Z,2.03
2018-07-03T09:49:35.209Z,2.27
2018-07-03T09:52:03.219Z,2.20
2018-07-03T09:54:31.303Z,1.80
2018-07-03T09:56:59.369Z,2.10
2018-07-03T09:59:27.470Z,2.30
2018-07-03T10:01:55.528Z,2.07
2018-07-03T10:04:23.638Z,2.40
2018-07-03T10:06:51.712Z,1.80
2018-07-03T10:09:19.709Z,2.10
2018-07-03T10:11:47.754Z,2.30
2018-07-03T10:14:15.853Z,2.10
2018-07-03T10:16:44.026Z,1.90
2018-07-03T10:19:12.044Z,2.20
2018-07-03T10:21:40.065Z,2.40
2018-07-03T10:24:08.143Z,2.17
2018-07-03T10:26:36.192Z,2.10
2018-07-03T10:29:04.264Z,1.80
2018-07-03T10:31:32.425Z,2.03
2018-07-03T10:34:00.491Z,2.30
2018-07-03T10:36:28.787Z,2.17
2018-07-03T10:38:56.779Z,2.00
2018-07-03T10:41:24.881Z,2.03
2018-07-03T10:43:53.062Z,2.10
2018-07-03T10:46:21.107Z,2.00
2018-07-03T10:48:49.115Z,1.90
2018-07-03T10:51:17.204Z,2.17
2018-07-03T10:53:45.260Z,2.50
2018-07-03T10:56:13.339Z,2.10
2018-07-03T10:58:41.349Z,2.07
2018-07-03T11:01:09.621Z,1.80
2018-07-03T11:03:37.727Z,2.20
2018-07-03T11:06:05.744Z,2.30
2018-07-03T11:08:33.779Z,2.73
2018-07-03T11:11:01.796Z,2.30
2018-07-03T11:13:29.909Z,2.50
2018-07-03T11:15:57.960Z,1.90
2018-07-03T11:18:26.206Z,2.00
2018-07-03T11:20:54.295Z,1.87
2018-07-03T11:23:22.469Z,2.10
2018-07-03T11:25:50.506Z,1.80
2018-07-03T11:28:18.589Z,2.13
2018-07-03T11:30:46.713Z,1.70
2018-07-03T11:33:14.891Z,2.10
2018-07-03T11:35:42.912Z,1.80
2018-07-03T11:38:10.997Z,1.90
2018-07-03T11:40:39.076Z,1.90
2018-07-03T11:43:07.833Z,1.70
2018-07-03T11:45:35.858Z,2.00
2018-07-03T11:48:03.965Z,1.90
2018-07-03T11:50:32.033Z,2.20
2018-07-03T11:53:00.120Z,1.90
2018-07-03T11:55:28.150Z,2.10
2018-07-03T11:57:56.188Z,2.17
2018-07-03T12:00:24.204Z,1.70
2018-07-03T12:02:52.307Z,2.00
2018-07-03T12:05:20.281Z,1.73
2018-07-03T12:07:49.159Z,1.90
2018-07-03T12:10:17.188Z,1.90
2018-07-03T12:12:45.315Z,1.70
2018-07-03T12:15:13.379Z,1.83
2018-07-03T12:17:41.416Z,1.70
2018-07-03T12:20:09.506Z,1.80
2018-07-03T12:22:37.611Z,1.90
2018-07-03T12:25:05.862Z,1.80
2018-07-03T12:27:33.924Z,1.80
2018-07-03T12:30:02.008Z,1.90
2018-07-03T12:32:30.021Z,1.80
2018-07-03T12:34:58.051Z,1.80
2018-07-03T12:37:26.166Z,1.77
2018-07-03T12:39:54.191Z,1.73
2018-07-03T12:42:22.273Z,1.73
2018-07-03T12:44:50.293Z,1.97
2018-07-03T12:47:18.376Z,2.20
2018-07-03T12:49:46.515Z,1.73
2018-07-03T12:52:14.863Z,1.63
2018-07-03T12:54:42.863Z,1.80
2018-07-03T12:57:10.893Z,1.80
2018-07-03T12:59:39.072Z,1.80
2018-07-03T13:02:07.163Z,1.83
2018-07-03T13:04:35.154Z,1.80
2018-07-03T13:24:13.661Z,1.80
2018-07-03T13:46:19.293Z,1.60
2018-07-03T13:48:47.329Z,1.77
2018-07-03T14:03:31.358Z,1.70
2018-07-03T14:05:59.634Z,1.70
2018-07-03T14:08:27.991Z,1.90
2018-07-03T14:10:56.065Z,1.70
2018-07-03T14:15:51.461Z,1.80
2018-07-03T14:18:24.652Z,1.90
2018-07-03T14:20:53.171Z,1.80
2018-07-03T14:23:21.208Z,1.60
2018-07-03T14:40:32.367Z,1.70
2018-07-03T15:00:10.703Z,1.75
2018-07-03T15:02:38.780Z,1.70
2018-07-03T15:05:06.894Z,1.70
2018-07-03T15:07:34.997Z,1.55
2018-07-03T15:10:03.076Z,2.10
2018-07-03T15:12:31.127Z,1.80
2018-07-03T15:14:59.253Z,1.80
2018-07-03T15:17:27.320Z,1.90
2018-07-03T15:19:56.834Z,1.60
2018-07-03T15:22:24.895Z,1.67
2018-07-03T15:24:53.382Z,1.77
2018-07-03T15:27:21.468Z,1.87
2018-07-03T15:29:49.531Z,1.80
2018-07-03T15:32:17.616Z,1.98
2018-07-03T15:34:45.719Z,1.62
2018-07-03T15:37:13.748Z,1.50
2018-07-03T15:39:41.837Z,1.72
2018-07-03T15:42:09.907Z,1.60
2018-07-03T15:44:43.608Z,1.60
2018-07-03T15:47:12.569Z,1.62
2018-07-03T15:49:40.661Z,2.12
2018-07-03T15:52:08.739Z,1.70
2018-07-03T15:54:36.798Z,1.70
2018-07-03T15:57:04.923Z,1.70
2018-07-03T15:59:36.104Z,1.50
2018-07-03T16:02:04.213Z,1.80
2018-07-03T16:05:03.602Z,1.65
2018-07-03T16:07:37.337Z,1.90
2018-07-03T16:10:05.434Z,1.90
2018-07-03T16:12:33.446Z,1.50
2018-07-03T16:15:01.619Z,1.70
2018-07-03T16:17:29.667Z,1.60
2018-07-03T16:21:05.858Z,1.97
2018-07-03T16:23:33.894Z,1.60
2018-07-03T16:26:01.952Z,2.12
2018-07-03T16:28:33.295Z,1.80
2018-07-03T16:31:01.388Z,1.60
2018-07-03T16:33:29.359Z,1.70
2018-07-03T16:35:57.453Z,1.57
2018-07-03T16:38:25.427Z,1.98
2018-07-03T16:40:53.452Z,1.60
2018-07-03T16:43:21.481Z,2.00
2018-07-03T16:45:49.434Z,1.90
2018-07-03T16:48:17.543Z,2.00
2018-07-03T16:50:45.530Z,1.70
2018-07-03T16:53:13.596Z,2.00
2018-07-03T16:55:41.723Z,1.85
2018-07-03T16:58:09.761Z,2.10
2018-07-03T17:00:37.775Z,1.75
2018-07-03T17:03:09.590Z,1.80
2018-07-03T17:05:37.590Z,2.20
2018-07-03T17:08:05.819Z,2.05
2018-07-03T17:10:33.934Z,2.30
2018-07-03T17:13:02.008Z,2.70
2018-07-03T17:15:33.447Z,2.87
2018-07-03T17:18:01.502Z,2.97
2018-07-03T17:20:29.685Z,2.80
2018-07-03T17:22:57.731Z,2.65
2018-07-03T17:25:25.737Z,3.08
2018-07-03T17:27:53.726Z,2.60
2018-07-03T17:30:21.807Z,2.72
2018-07-03T17:32:49.861Z,2.52
2018-07-03T17:35:17.931Z,2.45
2018-07-03T17:37:46.200Z,2.35
2018-07-03T17:40:19.891Z,2.10
2018-07-03T17:42:56.839Z,2.40
2018-07-03T17:45:31.504Z,2.27
2018-07-03T17:48:00.194Z,2.40
2018-07-03T17:50:28.237Z,2.62
2018-07-03T17:52:56.300Z,2.50
2018-07-03T17:55:24.557Z,2.70
2018-07-03T17:57:52.606Z,2.50
2018-07-03T18:00:20.815Z,2.53
2018-07-03T18:02:54.972Z,2.30
2018-07-03T18:05:23.930Z,2.40
2018-07-03T18:07:56.563Z,2.80
2018-07-03T18:10:25.034Z,3.00
2018-07-03T18:12:52.995Z,2.50
2018-07-03T18:15:22.066Z,2.50
2018-07-03T18:17:50.277Z,2.53
2018-07-03T18:20:24.997Z,2.93
2018-07-03T18:22:56.332Z,2.70
2018-07-03T18:25:24.445Z,2.73
2018-07-03T18:27:52.441Z,3.20
2018-07-03T18:30:20.541Z,3.27
2018-07-03T18:32:48.588Z,3.40
2018-07-03T18:35:20.251Z,3.70
2018-07-03T18:37:48.302Z,3.20
2018-07-03T18:40:16.380Z,3.10
2018-07-03T18:42:44.387Z,3.00
2018-07-03T18:45:12.594Z,2.90
2018-07-03T18:47:47.577Z,2.87
2018-07-03T18:50:15.703Z,2.67
2018-07-03T18:52:46.781Z,2.83
2018-07-03T18:55:14.918Z,2.93
2018-07-03T18:57:46.082Z,3.10
2018-07-03T19:00:14.386Z,2.70
2018-07-03T19:02:52.342Z,3.10
2018-07-03T19:05:20.485Z,3.10
2018-07-03T19:07:52.406Z,2.90
2018-07-03T19:10:20.980Z,3.20
2018-07-03T19:12:49.060Z,2.90
2018-07-03T19:15:17.088Z,2.73
2018-07-03T19:17:45.129Z,2.90
2018-07-03T19:20:13.176Z,3.20
2018-07-03T19:22:41.369Z,2.97
2018-07-03T19:25:09.486Z,2.67
2018-07-03T19:27:37.548Z,3.00
2018-07-03T19:30:05.991Z,3.10
2018-07-03T19:32:34.141Z,3.00
2018-07-03T19:35:02.205Z,3.10
2018-07-03T19:37:30.241Z,2.80
2018-07-03T19:39:58.428Z,3.10
2018-07-03T20:02:05.834Z,4.00
2018-07-03T20:04:34.723Z,4.23
2018-07-03T20:09:30.995Z,3.90
2018-07-03T20:32:03.593Z,3.87
2018-07-03T20:46:54.355Z,4.10
2018-07-03T20:49:28.193Z,4.07
2018-07-03T20:51:56.282Z,3.87
2018-07-03T20:54:24.408Z,3.90
2018-07-03T20:56:52.675Z,3.90
2018-07-03T20:59:20.676Z,4.00
2018-07-03T21:01:48.745Z,4.20
2018-07-03T21:04:17.188Z,4.10
2018-07-03T21:06:45.101Z,4.33
2018-07-03T21:09:13.171Z,4.40
2018-07-03T21:11:41.380Z,4.20
2018-07-03T21:14:09.653Z,3.90
2018-07-03T21:16:37.725Z,7.00
2018-07-03T21:19:05.739Z,6.10
2018-07-03T21:21:33.813Z,5.60
2018-07-03T21:24:01.974Z,4.73
2018-07-03T21:26:29.975Z,4.20
2018-07-03T21:28:58.153Z,3.80
2018-07-03T21:31:26.102Z,4.10
2018-07-03T21:33:54.193Z,3.33
2018-07-03T21:36:22.176Z,3.97
2018-07-03T21:38:50.460Z,3.70
2018-07-03T21:41:18.567Z,4.00
2018-07-03T21:43:46.567Z,3.53
2018-07-03T21:46:14.603Z,3.33
2018-07-03T21:48:42.602Z,3.60
2018-07-03T21:51:10.695Z,3.80
2018-07-03T21:53:38.710Z,3.27
2018-07-03T21:56:06.787Z,3.60
2018-07-03T21:58:34.779Z,3.67
2018-07-03T22:01:02.877Z,3.70
2018-07-03T22:03:30.973Z,3.77
2018-07-03T22:05:59.203Z,3.83
2018-07-03T22:08:27.400Z,3.80
2018-07-03T22:10:55.425Z,3.60
2018-07-03T22:13:23.428Z,4.07
2018-07-03T22:15:51.428Z,3.80
2018-07-03T22:18:19.529Z,3.80
2018-07-03T22:20:47.547Z,4.00
2018-07-03T22:23:15.594Z,3.70
2018-07-03T22:25:43.640Z,3.90
2018-07-03T22:28:11.619Z,4.20
2018-07-03T22:30:39.811Z,3.60
2018-07-03T22:33:08.014Z,4.00
2018-07-03T22:35:36.084Z,3.90
2018-07-03T22:38:04.114Z,3.67
2018-07-03T22:40:32.775Z,3.30
2018-07-03T22:43:00.915Z,3.53
2018-07-03T22:45:28.955Z,3.97
2018-07-03T22:48:00.619Z,3.70
2018-07-03T22:50:28.606Z,3.80
2018-07-03T22:52:56.686Z,3.77
2018-07-03T22:55:24.724Z,3.60
2018-07-03T22:57:52.825Z,3.50
2018-07-03T23:00:20.857Z,3.40
2018-07-03T23:02:48.817Z,3.50
2018-07-03T23:05:16.876Z,4.00
2018-07-03T23:07:44.980Z,3.67
2018-07-03T23:10:13.053Z,3.70
2018-07-03T23:12:41.600Z,4.20
2018-07-03T23:15:09.728Z,4.00
2018-07-03T23:17:37.810Z,3.87
2018-07-03T23:20:05.871Z,4.07
2018-07-03T23:22:33.890Z,3.60
2018-07-03T23:25:02.015Z,3.50
2018-07-03T23:27:30.677Z,3.50
2018-07-03T23:29:58.740Z,3.80
2018-07-03T23:32:26.726Z,4.17
2018-07-03T23:34:54.757Z,4.20
2018-07-03T23:37:22.800Z,3.60
2018-07-03T23:39:51.035Z,4.13
2018-07-03T23:42:19.042Z,3.80
2018-07-03T23:44:47.056Z,3.47
2018-07-03T23:47:20.597Z,3.77
2018-07-03T23:49:54.324Z,4.00
2018-07-03T23:52:27.951Z,3.80
2018-07-03T23:55:01.464Z,3.80
2018-07-03T23:57:35.128Z,4.13
